Terminal Aerodrome Forecast
Issued by NWS Pocatello, ID

Home | Current Version | Previous Version | Text Only | Print | Product List | Glossary On
Versions: 1 2 3 4 5 6 7 8 9 10 11 12 13
553
FTUS45 KPIH 202321
TAFIDA
TAF
KIDA 202321Z 2100/2124 36012KT P6SM FEW050 SCT080
     FM210600 34006KT P6SM FEW010
     FM211700 24013KT P6SM FEW050 SCT100=

USA.gov is the U.S. government's official web portal to all federal, state and local government web resources and services.